Time;durP1;ratioP1;P1;durP2;ratioP2;P2;SDS_P1;SDS_P2;PMS_P1;PMS_P2;Temp;Humidity;BMP_temperature;BMP_pressure;BME280_temperature;BME280_humidity;BME280_pressure;Samples;Min_cycle;Max_cycle;Signal;HPM_P1;HPM_P2
2021/01/14 00:00:53;;;;;;;194.50;33.65;;;;;;;;;;8261540;28;20379;-70
2021/01/14 00:04:56;;;;;;;238.90;42.13;;;;;;;;;;8262337;28;20365;-71
2021/01/14 00:08:59;;;;;;;164.65;32.45;;;;;;;;;;8260760;28;20488;-71
2021/01/14 00:13:09;;;;;;;89.97;21.58;;;;;;;;;;8261186;28;20395;-72
2021/01/14 00:17:12;;;;;;;127.25;27.45;;;;;;;;;;8260066;28;20471;-70
2021/01/14 00:21:16;;;;;;;71.15;19.52;;;;;;;;;;8262046;28;20382;-71
2021/01/14 00:25:19;;;;;;;149.45;30.08;;;;;;;;;;8260787;28;20382;-72
2021/01/14 00:29:22;;;;;;;163.93;34.00;;;;;;;;;;8259925;28;20376;-71
2021/01/14 00:33:25;;;;;;;111.10;28.15;;;;;;;;;;8261253;28;20475;-70
2021/01/14 00:41:50;;;;;;;124.57;27.30;;;;;;;;;;8255523;28;20052;-70
2021/01/14 00:45:52;;;;;;;155.45;32.30;;;;;;;;;;8254945;28;20075;-70
2021/01/14 00:49:55;;;;;;;98.63;22.60;;;;;;;;;;8256407;28;20041;-71
2021/01/14 00:53:58;;;;;;;37.33;13.95;;;;;;;;;;8253851;28;20353;-72
2021/01/14 00:58:01;;;;;;;113.13;27.50;;;;;;;;;;8255583;28;20514;-71
2021/01/14 01:02:05;;;;;;;112.22;27.15;;;;;;;;;;8255773;28;20049;-72
2021/01/14 01:06:08;;;;;;;94.25;22.60;;;;;;;;;;8270187;28;20383;-70
2021/01/14 01:10:11;;;;;;;84.43;25.17;;;;;;;;;;8266201;28;20478;-70
2021/01/14 01:14:14;;;;;;;173.63;33.97;;;;;;;;;;8236488;28;20483;-71
2021/01/14 01:18:17;;;;;;;53.22;16.85;;;;;;;;;;8253238;28;20053;-70
2021/01/14 01:22:20;;;;;;;97.70;24.05;;;;;;;;;;8254616;28;20067;-71
2021/01/14 01:26:23;;;;;;;57.00;18.80;;;;;;;;;;8253695;28;20061;-71
2021/01/14 01:30:26;;;;;;;85.22;21.00;;;;;;;;;;8255274;28;20379;-71
2021/01/14 01:34:30;;;;;;;99.75;24.63;;;;;;;;;;8255029;28;20468;-71
2021/01/14 01:38:33;;;;;;;93.85;25.50;;;;;;;;;;8252952;28;20467;-70
2021/01/14 01:42:36;;;;;;;137.95;30.33;;;;;;;;;;8238104;28;20379;-71
2021/01/14 01:46:39;;;;;;;109.63;25.30;;;;;;;;;;8252402;28;20478;-70
2021/01/14 01:50:42;;;;;;;86.57;25.15;;;;;;;;;;8251115;28;20402;-71
2021/01/14 01:54:44;;;;;;;118.47;29.73;;;;;;;;;;8252717;28;20475;-71
2021/01/14 01:58:49;;;;;;;41.00;14.52;;;;;;;;;;8253309;28;20486;-70
2021/01/14 02:02:52;;;;;;;122.30;26.60;;;;;;;;;;8252402;28;20376;-70
2021/01/14 02:07:05;;;;;;;108.00;25.27;;;;;;;;;;8251976;28;20057;-71
2021/01/14 02:11:13;;;;;;;131.57;32.35;;;;;;;;;;8251312;28;20075;-70
2021/01/14 02:15:17;;;;;;;120.28;27.13;;;;;;;;;;8252088;28;20049;-70
2021/01/14 02:19:31;;;;;;;66.07;21.25;;;;;;;;;;8253737;28;20395;-72
2021/01/14 02:24:19;;;;;;;65.95;18.52;;;;;;;;;;8251218;28;20383;-70
2021/01/14 02:28:23;;;;;;;127.37;34.33;;;;;;;;;;8251204;28;20356;-70
2021/01/14 02:32:26;;;;;;;59.28;17.52;;;;;;;;;;8252964;28;20383;-70
2021/01/14 02:36:29;;;;;;;104.65;26.77;;;;;;;;;;8253649;28;20483;-71
2021/01/14 02:40:32;;;;;;;44.08;15.52;;;;;;;;;;8249592;28;20461;-71
2021/01/14 02:44:35;;;;;;;86.93;23.52;;;;;;;;;;8252605;28;20406;-70
2021/01/14 02:48:45;;;;;;;67.50;20.30;;;;;;;;;;8252812;28;20494;-71
2021/01/14 02:52:49;;;;;;;87.28;23.80;;;;;;;;;;8251587;28;20072;-71
2021/01/14 02:56:52;;;;;;;52.03;18.48;;;;;;;;;;8251769;28;20071;-71
2021/01/14 03:00:57;;;;;;;78.07;22.08;;;;;;;;;;8250413;28;20057;-70
2021/01/14 03:04:59;;;;;;;49.13;15.68;;;;;;;;;;8249595;28;20383;-72
2021/01/14 03:09:04;;;;;;;50.25;17.73;;;;;;;;;;8249258;28;20418;-72
2021/01/14 03:13:08;;;;;;;69.80;21.42;;;;;;;;;;8249848;28;20475;-71
2021/01/14 03:17:10;;;;;;;56.60;19.40;;;;;;;;;;8251395;28;20353;-70
2021/01/14 03:21:24;;;;;;;51.85;17.48;;;;;;;;;;8251720;28;20494;-73
2021/01/14 03:25:27;;;;;;;34.22;11.75;;;;;;;;;;8249687;28;20357;-70
2021/01/14 03:29:30;;;;;;;49.10;17.45;;;;;;;;;;8251283;28;20049;-71
2021/01/14 03:33:33;;;;;;;51.55;18.42;;;;;;;;;;8250105;28;20041;-71
2021/01/14 03:37:41;;;;;;;57.90;20.63;;;;;;;;;;8247413;28;20467;-70
2021/01/14 03:41:44;;;;;;;26.92;12.75;;;;;;;;;;8251187;28;20407;-73
2021/01/14 03:45:47;;;;;;;51.53;18.50;;;;;;;;;;8251296;28;20387;-70
2021/01/14 03:49:50;;;;;;;33.70;13.80;;;;;;;;;;8248879;28;20075;-71
2021/01/14 03:53:53;;;;;;;26.73;11.82;;;;;;;;;;8249687;28;20049;-72
2021/01/14 03:57:56;;;;;;;80.15;26.65;;;;;;;;;;8250164;28;20471;-71
2021/01/14 04:02:06;;;;;;;51.00;17.70;;;;;;;;;;8250284;28;20486;-71
2021/01/14 04:06:10;;;;;;;50.90;20.83;;;;;;;;;;8250472;28;20045;-71
2021/01/14 04:10:13;;;;;;;44.88;17.80;;;;;;;;;;8247888;28;20395;-72
2021/01/14 04:14:17;;;;;;;1999.90;750.22;;;;;;;;;;8234554;28;20099;-71
2021/01/14 04:18:19;;;;;;;558.78;148.40;;;;;;;;;;8257891;28;20367;-71
2021/01/14 04:22:22;;;;;;;808.78;208.75;;;;;;;;;;8254665;28;20075;-71
2021/01/14 04:26:25;;;;;;;897.72;250.35;;;;;;;;;;8256802;28;20372;-71
2021/01/14 04:30:32;;;;;;;1319.75;293.70;;;;;;;;;;8255934;28;20356;-69
2021/01/14 04:34:35;;;;;;;411.10;74.57;;;;;;;;;;8256035;28;20357;-68
2021/01/14 04:38:38;;;;;;;186.60;45.53;;;;;;;;;;8255162;28;20083;-72
2021/01/14 04:42:44;;;;;;;32.10;14.43;;;;;;;;;;8255207;28;20373;-71
2021/01/14 04:46:50;;;;;;;46.85;17.00;;;;;;;;;;8254358;28;20071;-71
2021/01/14 04:50:54;;;;;;;29.95;13.63;;;;;;;;;;8254526;28;20060;-73
2021/01/14 04:55:02;;;;;;;120.82;27.67;;;;;;;;;;8253171;28;20183;-71
2021/01/14 04:59:06;;;;;;;26.20;13.05;;;;;;;;;;8254293;28;20049;-71
2021/01/14 05:03:20;;;;;;;42.25;15.93;;;;;;;;;;8254018;28;20415;-71
2021/01/14 05:07:32;;;;;;;18.80;10.48;;;;;;;;;;8253650;28;20498;-71
2021/01/14 05:11:52;;;;;;;15.50;8.88;;;;;;;;;;8255482;28;20111;-71
2021/01/14 05:15:56;;;;;;;20.25;9.02;;;;;;;;;;8253219;28;20415;-71
2021/01/14 05:19:59;;;;;;;18.73;8.50;;;;;;;;;;8268591;28;20515;-71
2021/01/14 05:24:16;;;;;;;17.67;9.10;;;;;;;;;;8251706;28;20467;-70
2021/01/14 05:28:24;;;;;;;21.70;9.63;;;;;;;;;;8252502;28;20491;-71
2021/01/14 05:32:56;;;;;;;16.30;7.65;;;;;;;;;;8253303;28;20135;-71
2021/01/14 05:37:03;;;;;;;16.50;7.97;;;;;;;;;;8238797;28;20480;-71
2021/01/14 05:45:30;;;;;;;22.23;9.40;;;;;;;;;;8251849;28;20410;-71
2021/01/14 05:49:33;;;;;;;29.65;11.80;;;;;;;;;;8253142;28;20489;-71
2021/01/14 05:53:54;;;;;;;24.13;12.23;;;;;;;;;;8250484;28;20471;-71
2021/01/14 05:58:03;;;;;;;26.27;11.07;;;;;;;;;;8252031;28;20407;-71
2021/01/14 06:02:06;;;;;;;21.63;9.25;;;;;;;;;;8251441;28;20414;-71
2021/01/14 06:06:15;;;;;;;22.17;11.18;;;;;;;;;;8250619;28;20455;-71
2021/01/14 06:10:35;;;;;;;18.80;10.57;;;;;;;;;;8234820;28;20371;-70
2021/01/14 06:14:39;;;;;;;25.27;8.98;;;;;;;;;;8250881;28;20486;-71
2021/01/14 06:19:06;;;;;;;17.48;7.97;;;;;;;;;;8252655;28;20377;-70
2021/01/14 06:23:09;;;;;;;19.25;8.43;;;;;;;;;;8250947;28;20479;-71
2021/01/14 06:27:13;;;;;;;19.33;9.60;;;;;;;;;;8252861;28;20364;-73
2021/01/14 06:31:16;;;;;;;15.80;8.50;;;;;;;;;;8251800;28;20071;-71
2021/01/14 06:35:22;;;;;;;14.48;8.77;;;;;;;;;;8251556;28;20422;-71
2021/01/14 06:39:36;;;;;;;14.98;6.32;;;;;;;;;;8250258;28;20053;-70
2021/01/14 06:43:42;;;;;;;17.95;8.13;;;;;;;;;;8252365;28;20049;-70
2021/01/14 06:47:47;;;;;;;17.20;7.68;;;;;;;;;;8253231;28;20071;-71
2021/01/14 06:52:09;;;;;;;18.27;7.95;;;;;;;;;;8252154;28;20475;-70
2021/01/14 06:56:33;;;;;;;17.90;6.97;;;;;;;;;;8213347;28;20476;-72
2021/01/14 07:00:50;;;;;;;20.10;7.13;;;;;;;;;;8212359;28;20464;-71
2021/01/14 07:05:06;;;;;;;19.63;7.53;;;;;;;;;;8252487;28;20075;-71
2021/01/14 07:09:20;;;;;;;22.02;7.72;;;;;;;;;;8249251;28;20434;-71
2021/01/14 07:13:31;;;;;;;14.45;6.18;;;;;;;;;;8234373;28;20085;-70
2021/01/14 07:17:40;;;;;;;13.23;6.35;;;;;;;;;;8235484;28;20371;-71
2021/01/14 07:21:45;;;;;;;11.82;4.93;;;;;;;;;;8249390;28;20365;-71
2021/01/14 07:25:49;;;;;;;9.18;4.53;;;;;;;;;;8248128;28;20470;-69
2021/01/14 07:29:55;;;;;;;11.50;5.60;;;;;;;;;;8249373;28;20475;-71
2021/01/14 07:34:36;;;;;;;17.17;6.55;;;;;;;;;;8252047;28;20506;-71
2021/01/14 07:38:48;;;;;;;14.25;5.57;;;;;;;;;;8250961;28;20491;-70
2021/01/14 07:42:52;;;;;;;13.80;6.35;;;;;;;;;;8249927;28;20060;-70
2021/01/14 07:46:55;;;;;;;10.80;5.25;;;;;;;;;;8267463;28;20470;-70
2021/01/14 07:50:58;;;;;;;38.30;12.80;;;;;;;;;;8273534;28;20426;-71
2021/01/14 07:55:10;;;;;;;21.55;8.90;;;;;;;;;;8256932;28;20048;-70
2021/01/14 07:59:14;;;;;;;19.88;6.93;;;;;;;;;;8256609;28;20490;-71
2021/01/14 08:03:18;;;;;;;16.25;7.53;;;;;;;;;;8239349;28;20393;-71
2021/01/14 08:07:26;;;;;;;13.88;6.93;;;;;;;;;;8256901;28;20053;-70
2021/01/14 08:11:43;;;;;;;15.70;6.87;;;;;;;;;;8255460;28;20676;-70
2021/01/14 08:15:46;;;;;;;25.48;8.63;;;;;;;;;;8239314;28;20484;-70
2021/01/14 08:19:49;;;;;;;13.23;6.25;;;;;;;;;;8232547;28;20360;-70
2021/01/14 08:23:53;;;;;;;23.70;7.60;;;;;;;;;;8252531;28;20368;-71
2021/01/14 08:28:04;;;;;;;13.43;6.72;;;;;;;;;;8236970;28;20465;-70
2021/01/14 08:32:32;;;;;;;19.65;8.52;;;;;;;;;;8253869;28;20586;-71
2021/01/14 08:36:56;;;;;;;16.42;6.93;;;;;;;;;;8224391;28;20380;-70
2021/01/14 08:41:01;;;;;;;12.47;5.70;;;;;;;;;;8223195;28;20506;-70
2021/01/14 08:45:18;;;;;;;22.65;9.45;;;;;;;;;;8224472;28;20349;-71
2021/01/14 08:49:22;;;;;;;17.40;9.23;;;;;;;;;;8254740;28;20464;-72
2021/01/14 08:53:29;;;;;;;21.05;9.38;;;;;;;;;;8255902;28;20495;-71
2021/01/14 08:57:52;;;;;;;19.85;10.90;;;;;;;;;;8257235;28;20053;-70
2021/01/14 09:01:58;;;;;;;21.55;11.65;;;;;;;;;;8254968;28;20475;-75
2021/01/14 09:06:01;;;;;;;12.32;7.20;;;;;;;;;;8254204;28;20641;-71
2021/01/14 09:10:05;;;;;;;14.32;7.50;;;;;;;;;;8256309;28;20057;-71
2021/01/14 09:14:13;;;;;;;14.18;7.60;;;;;;;;;;8255871;28;20371;-71
2021/01/14 09:18:18;;;;;;;15.95;6.55;;;;;;;;;;8254816;28;20387;-71
2021/01/14 09:22:28;;;;;;;13.80;6.65;;;;;;;;;;8253652;28;20395;-70
2021/01/14 09:26:31;;;;;;;14.60;7.72;;;;;;;;;;8255458;28;20487;-72
2021/01/14 09:30:35;;;;;;;20.35;11.65;;;;;;;;;;8256638;28;20460;-72
2021/01/14 09:34:38;;;;;;;16.15;8.85;;;;;;;;;;8254227;28;20053;-71
2021/01/14 09:39:01;;;;;;;17.25;8.65;;;;;;;;;;8257661;28;20470;-71
2021/01/14 09:43:04;;;;;;;14.35;8.18;;;;;;;;;;8253938;28;20493;-71
2021/01/14 09:47:08;;;;;;;16.25;9.30;;;;;;;;;;8256209;28;20379;-71
2021/01/14 09:51:14;;;;;;;21.38;11.02;;;;;;;;;;8256189;28;20517;-71
2021/01/14 09:55:18;;;;;;;16.50;7.28;;;;;;;;;;8258831;28;20410;-72
2021/01/14 09:59:40;;;;;;;13.52;7.70;;;;;;;;;;8258055;28;20490;-72
2021/01/14 10:03:50;;;;;;;34.65;18.10;;;;;;;;;;8258558;28;20375;-72
2021/01/14 10:07:59;;;;;;;15.90;9.30;;;;;;;;;;8256254;28;20391;-71
2021/01/14 10:12:05;;;;;;;19.10;10.55;;;;;;;;;;8256962;28;20498;-71
2021/01/14 10:16:11;;;;;;;17.23;10.07;;;;;;;;;;8258183;28;20498;-72
2021/01/14 10:20:14;;;;;;;16.05;10.52;;;;;;;;;;8256803;28;20357;-72
2021/01/14 10:24:27;;;;;;;21.52;10.48;;;;;;;;;;8256375;28;20455;-72
2021/01/14 10:28:43;;;;;;;18.23;9.13;;;;;;;;;;8256009;28;20053;-71
2021/01/14 10:32:47;;;;;;;16.08;9.82;;;;;;;;;;8239955;28;20049;-72
2021/01/14 10:36:52;;;;;;;23.13;11.38;;;;;;;;;;8255396;28;20383;-71
2021/01/14 10:40:56;;;;;;;18.35;10.02;;;;;;;;;;8256360;28;20391;-72
2021/01/14 10:45:10;;;;;;;20.58;9.60;;;;;;;;;;8257266;28;20467;-72
2021/01/14 10:49:14;;;;;;;21.20;10.25;;;;;;;;;;8256318;28;20463;-73
2021/01/14 10:53:31;;;;;;;18.23;9.98;;;;;;;;;;8239393;28;20387;-72
2021/01/14 10:57:55;;;;;;;18.47;10.70;;;;;;;;;;8254945;28;20079;-72
2021/01/14 11:02:09;;;;;;;25.90;13.43;;;;;;;;;;8256610;28;20410;-72
2021/01/14 11:06:12;;;;;;;35.95;18.10;;;;;;;;;;8254716;28;20353;-71
2021/01/14 11:10:15;;;;;;;27.70;14.27;;;;;;;;;;8254806;28;20471;-72
2021/01/14 11:14:19;;;;;;;18.88;10.07;;;;;;;;;;8254791;28;20398;-72
2021/01/14 11:18:22;;;;;;;23.35;12.98;;;;;;;;;;8255236;28;20379;-72
2021/01/14 11:22:25;;;;;;;22.65;11.10;;;;;;;;;;8254701;28;20506;-73
2021/01/14 11:26:29;;;;;;;19.42;10.63;;;;;;;;;;8256393;28;20460;-73
2021/01/14 11:30:50;;;;;;;24.42;12.07;;;;;;;;;;8256710;28;20463;-72
2021/01/14 11:34:55;;;;;;;18.15;10.50;;;;;;;;;;8253746;28;20471;-72
2021/01/14 11:38:58;;;;;;;23.10;10.90;;;;;;;;;;8237818;28;20367;-74
2021/01/14 11:43:02;;;;;;;19.25;10.15;;;;;;;;;;8255478;28;20383;-72
2021/01/14 11:47:04;;;;;;;17.27;8.43;;;;;;;;;;8256093;28;20458;-73
2021/01/14 11:51:07;;;;;;;16.35;9.20;;;;;;;;;;8254449;28;20082;-72
2021/01/14 11:55:11;;;;;;;9.48;6.00;;;;;;;;;;8257060;28;20072;-73
2021/01/14 11:59:14;;;;;;;21.65;12.57;;;;;;;;;;8255615;28;20048;-73
2021/01/14 12:03:17;;;;;;;13.88;6.57;;;;;;;;;;8255428;28;20475;-73
2021/01/14 12:07:20;;;;;;;16.02;8.38;;;;;;;;;;8254068;28;20049;-72
2021/01/14 12:11:24;;;;;;;18.67;8.60;;;;;;;;;;8254957;28;20490;-73
2021/01/14 12:15:27;;;;;;;14.95;8.75;;;;;;;;;;8253865;28;20380;-74
2021/01/14 12:19:31;;;;;;;14.45;7.07;;;;;;;;;;8253479;28;20478;-74
2021/01/14 12:23:34;;;;;;;17.15;8.73;;;;;;;;;;8254557;28;20067;-73
2021/01/14 12:27:39;;;;;;;15.43;7.10;;;;;;;;;;8268685;28;20037;-72
2021/01/14 12:31:42;;;;;;;13.55;5.85;;;;;;;;;;8255152;28;20490;-71
2021/01/14 12:35:45;;;;;;;11.85;5.57;;;;;;;;;;8257510;28;20360;-72
2021/01/14 12:39:49;;;;;;;10.68;5.70;;;;;;;;;;8261018;28;20387;-72
2021/01/14 12:43:52;;;;;;;11.95;5.30;;;;;;;;;;8259801;28;20501;-72
2021/01/14 12:47:54;;;;;;;9.88;5.00;;;;;;;;;;8260402;28;20472;-72
2021/01/14 12:51:57;;;;;;;12.77;6.38;;;;;;;;;;8258570;28;20459;-71
2021/01/14 12:56:00;;;;;;;11.43;5.80;;;;;;;;;;8258898;28;20422;-72
2021/01/14 13:00:05;;;;;;;14.00;6.88;;;;;;;;;;8258694;28;20490;-73
2021/01/14 13:04:11;;;;;;;11.90;6.65;;;;;;;;;;8253840;28;20374;-75
2021/01/14 13:08:14;;;;;;;14.55;6.88;;;;;;;;;;8255220;28;20468;-74
2021/01/14 13:12:17;;;;;;;16.38;7.07;;;;;;;;;;8255795;28;20392;-73
2021/01/14 13:16:22;;;;;;;15.32;8.68;;;;;;;;;;8257438;28;20391;-73
2021/01/14 13:20:25;;;;;;;16.15;7.85;;;;;;;;;;8258666;28;20474;-72
2021/01/14 13:24:28;;;;;;;18.75;9.13;;;;;;;;;;8257039;28;20455;-74
2021/01/14 13:28:31;;;;;;;19.13;9.60;;;;;;;;;;8271720;28;20371;-74
2021/01/14 13:32:34;;;;;;;30.80;13.75;;;;;;;;;;8258531;28;20451;-74
2021/01/14 13:36:38;;;;;;;55.25;24.60;;;;;;;;;;8254827;28;20395;-74
2021/01/14 13:40:49;;;;;;;46.88;19.52;;;;;;;;;;8257140;28;20395;-73
2021/01/14 13:44:54;;;;;;;30.27;14.25;;;;;;;;;;8253402;28;20439;-73
2021/01/14 13:49:00;;;;;;;17.30;8.23;;;;;;;;;;8253850;28;20501;-75
2021/01/14 13:53:04;;;;;;;19.40;8.93;;;;;;;;;;8254389;28;20406;-74
2021/01/14 13:57:08;;;;;;;15.93;9.13;;;;;;;;;;8254693;28;20378;-73
2021/01/14 14:01:11;;;;;;;23.45;13.18;;;;;;;;;;8256494;28;20368;-74
2021/01/14 14:05:14;;;;;;;26.70;12.15;;;;;;;;;;8257524;28;20163;-73
2021/01/14 14:09:18;;;;;;;28.27;11.65;;;;;;;;;;8254888;28;20502;-73
2021/01/14 14:13:22;;;;;;;25.30;11.23;;;;;;;;;;8255778;28;20386;-74
2021/01/14 14:17:25;;;;;;;143.68;62.97;;;;;;;;;;8257681;28;20053;-73
2021/01/14 14:21:28;;;;;;;26.98;12.48;;;;;;;;;;8250109;28;20471;-74
2021/01/14 14:25:31;;;;;;;36.15;17.98;;;;;;;;;;8255541;28;20415;-75
2021/01/14 14:29:34;;;;;;;27.38;13.90;;;;;;;;;;8255264;28;20383;-73
2021/01/14 14:33:39;;;;;;;23.65;10.95;;;;;;;;;;8248718;28;20469;-73
2021/01/14 14:37:42;;;;;;;32.78;16.20;;;;;;;;;;8235074;28;20509;-73
2021/01/14 14:41:51;;;;;;;34.95;17.50;;;;;;;;;;8252881;28;20482;-74
2021/01/14 14:45:53;;;;;;;37.75;16.83;;;;;;;;;;8252093;28;20110;-74
2021/01/14 14:49:57;;;;;;;40.10;20.55;;;;;;;;;;8252273;28;20387;-74
2021/01/14 14:54:00;;;;;;;56.42;25.85;;;;;;;;;;8254696;28;20387;-75
2021/01/14 14:58:04;;;;;;;50.03;22.05;;;;;;;;;;8265005;28;20488;-74
2021/01/14 15:02:08;;;;;;;37.85;16.90;;;;;;;;;;8252766;28;20490;-74
2021/01/14 15:06:19;;;;;;;40.80;17.45;;;;;;;;;;8203844;28;20495;-73
2021/01/14 15:10:22;;;;;;;48.30;20.50;;;;;;;;;;8208663;28;20471;-73
2021/01/14 15:14:27;;;;;;;59.22;22.70;;;;;;;;;;8253351;28;20371;-74
2021/01/14 15:18:33;;;;;;;38.67;17.20;;;;;;;;;;8253730;28;20479;-73
2021/01/14 15:22:39;;;;;;;40.25;17.90;;;;;;;;;;8253049;28;20641;-74
2021/01/14 15:26:43;;;;;;;44.85;18.88;;;;;;;;;;8235117;28;20048;-74
2021/01/14 15:30:46;;;;;;;39.47;15.25;;;;;;;;;;8251178;28;20379;-74
2021/01/14 15:34:49;;;;;;;37.28;16.13;;;;;;;;;;8251795;28;20349;-74
2021/01/14 15:38:52;;;;;;;43.45;17.10;;;;;;;;;;8232750;28;20452;-75
2021/01/14 15:42:56;;;;;;;38.40;15.75;;;;;;;;;;8252228;28;20484;-74
2021/01/14 15:47:00;;;;;;;66.18;21.98;;;;;;;;;;8252428;28;20471;-75
2021/01/14 15:51:03;;;;;;;37.70;16.98;;;;;;;;;;8251267;28;20061;-74
2021/01/14 15:55:07;;;;;;;53.47;22.48;;;;;;;;;;8253289;28;20472;-74
2021/01/14 15:59:36;;;;;;;50.30;22.05;;;;;;;;;;8251076;28;20467;-73
2021/01/14 16:03:39;;;;;;;37.80;17.38;;;;;;;;;;8251087;28;20053;-74
2021/01/14 16:07:44;;;;;;;49.90;19.17;;;;;;;;;;8251958;28;20364;-74
2021/01/14 16:11:47;;;;;;;45.25;17.25;;;;;;;;;;8256090;28;20045;-74
2021/01/14 16:15:52;;;;;;;41.53;19.63;;;;;;;;;;8257703;28;20357;-75
2021/01/14 16:19:55;;;;;;;72.75;22.83;;;;;;;;;;8257597;28;20485;-74
2021/01/14 16:23:59;;;;;;;41.28;17.58;;;;;;;;;;8246632;28;20071;-74
2021/01/14 16:28:03;;;;;;;46.28;18.70;;;;;;;;;;8255769;28;20045;-76
2021/01/14 16:32:06;;;;;;;50.17;20.20;;;;;;;;;;8256008;28;20506;-73
2021/01/14 16:36:10;;;;;;;43.15;17.13;;;;;;;;;;8255036;28;20352;-74
2021/01/14 16:40:16;;;;;;;63.20;21.13;;;;;;;;;;8254686;28;20041;-75
2021/01/14 16:44:24;;;;;;;63.13;22.37;;;;;;;;;;8257924;28;20057;-75
2021/01/14 16:48:27;;;;;;;58.10;22.63;;;;;;;;;;8255534;28;20391;-75
2021/01/14 16:52:35;;;;;;;46.88;21.10;;;;;;;;;;8257277;28;20078;-74
2021/01/14 16:56:38;;;;;;;42.22;17.88;;;;;;;;;;8257952;28;20490;-75
2021/01/14 17:00:41;;;;;;;80.25;34.85;;;;;;;;;;8255947;28;20478;-74
2021/01/14 17:04:45;;;;;;;55.20;34.20;;;;;;;;;;8256998;28;20049;-74
2021/01/14 17:08:48;;;;;;;73.45;28.85;;;;;;;;;;8255914;28;20474;-73
2021/01/14 17:12:52;;;;;;;113.47;51.85;;;;;;;;;;8254527;28;20472;-73
2021/01/14 17:16:55;;;;;;;51.65;23.42;;;;;;;;;;8236446;28;20379;-74
2021/01/14 17:20:58;;;;;;;146.63;56.55;;;;;;;;;;8256627;28;20391;-74
2021/01/14 17:25:01;;;;;;;346.75;184.43;;;;;;;;;;8257282;28;20506;-74
2021/01/14 17:29:07;;;;;;;105.78;46.15;;;;;;;;;;8258678;28;20049;-75
2021/01/14 17:33:11;;;;;;;255.98;82.63;;;;;;;;;;8253705;28;20116;-74
2021/01/14 17:37:14;;;;;;;389.90;135.85;;;;;;;;;;8236535;28;20048;-75
2021/01/14 17:41:18;;;;;;;258.88;74.72;;;;;;;;;;8272025;28;20361;-74
2021/01/14 17:45:26;;;;;;;237.02;72.82;;;;;;;;;;8258600;28;20495;-74
2021/01/14 17:49:30;;;;;;;145.50;49.88;;;;;;;;;;8258125;28;20352;-74
2021/01/14 17:53:33;;;;;;;159.00;57.85;;;;;;;;;;8257570;28;20459;-75
2021/01/14 17:57:37;;;;;;;123.28;44.95;;;;;;;;;;8254145;28;20463;-73
2021/01/14 18:01:40;;;;;;;431.38;154.40;;;;;;;;;;8255098;28;20479;-73
2021/01/14 18:05:44;;;;;;;189.05;71.55;;;;;;;;;;8257450;28;20417;-74
2021/01/14 18:09:49;;;;;;;227.75;82.63;;;;;;;;;;8254447;28;20364;-75
2021/01/14 18:13:52;;;;;;;197.82;84.30;;;;;;;;;;8254343;28;20429;-75
2021/01/14 18:17:57;;;;;;;105.88;42.30;;;;;;;;;;8253509;28;20057;-74
2021/01/14 18:22:04;;;;;;;251.07;99.07;;;;;;;;;;8254994;28;20399;-73
2021/01/14 18:26:08;;;;;;;200.10;87.30;;;;;;;;;;8252450;28;20413;-73
2021/01/14 18:30:13;;;;;;;197.25;86.63;;;;;;;;;;8251893;28;20061;-75
2021/01/14 18:34:22;;;;;;;156.45;62.92;;;;;;;;;;8251904;28;20036;-75
2021/01/14 18:38:26;;;;;;;226.13;83.65;;;;;;;;;;8254671;28;20411;-74
2021/01/14 18:42:29;;;;;;;117.22;47.80;;;;;;;;;;8251322;28;20067;-73
2021/01/14 18:46:34;;;;;;;125.85;48.17;;;;;;;;;;8252687;28;20438;-75
2021/01/14 18:50:39;;;;;;;152.43;57.25;;;;;;;;;;8252075;28;20379;-74
2021/01/14 18:54:42;;;;;;;116.80;45.67;;;;;;;;;;8251428;28;20379;-75
2021/01/14 18:58:47;;;;;;;102.95;37.80;;;;;;;;;;8248673;28;20490;-74
2021/01/14 19:02:51;;;;;;;103.63;38.10;;;;;;;;;;8252100;28;20497;-74
2021/01/14 19:06:54;;;;;;;191.30;64.30;;;;;;;;;;8251556;28;20481;-72
2021/01/14 19:10:58;;;;;;;233.60;81.97;;;;;;;;;;8251404;28;20053;-75
2021/01/14 19:15:01;;;;;;;76.38;31.05;;;;;;;;;;8251039;28;20475;-75
2021/01/14 19:19:05;;;;;;;104.65;38.88;;;;;;;;;;8251084;28;20471;-73
2021/01/14 19:23:09;;;;;;;76.75;32.20;;;;;;;;;;8217246;28;20482;-73
2021/01/14 19:27:12;;;;;;;81.68;34.83;;;;;;;;;;8262143;28;20402;-73
2021/01/14 19:31:21;;;;;;;59.63;25.05;;;;;;;;;;8251147;28;20458;-74
2021/01/14 19:35:25;;;;;;;72.28;28.63;;;;;;;;;;8249749;28;20570;-71
2021/01/14 19:39:28;;;;;;;69.43;28.52;;;;;;;;;;8250573;28;20406;-71
2021/01/14 19:43:31;;;;;;;54.40;20.98;;;;;;;;;;8252235;28;20049;-71
2021/01/14 19:47:36;;;;;;;35.65;16.50;;;;;;;;;;8239906;28;20476;-71
2021/01/14 19:51:41;;;;;;;30.17;14.50;;;;;;;;;;8257812;28;20383;-70
2021/01/14 19:55:44;;;;;;;28.05;11.18;;;;;;;;;;8239102;28;20382;-71
2021/01/14 19:59:53;;;;;;;24.70;9.65;;;;;;;;;;8256362;28;20116;-72
2021/01/14 20:03:57;;;;;;;23.17;10.82;;;;;;;;;;8252305;28;20386;-73
2021/01/14 20:08:00;;;;;;;28.63;10.90;;;;;;;;;;8255983;28;20492;-71
2021/01/14 20:12:07;;;;;;;25.65;10.30;;;;;;;;;;8255837;28;20476;-72
2021/01/14 20:16:14;;;;;;;28.23;8.40;;;;;;;;;;8255915;28;20371;-71
2021/01/14 20:20:18;;;;;;;21.05;8.35;;;;;;;;;;8255196;28;20071;-74
2021/01/14 20:24:22;;;;;;;19.98;8.80;;;;;;;;;;8257228;28;20395;-72
2021/01/14 20:28:25;;;;;;;20.45;9.40;;;;;;;;;;8255426;28;20107;-72
2021/01/14 20:32:33;;;;;;;20.63;8.93;;;;;;;;;;8253875;28;20049;-73
2021/01/14 20:36:37;;;;;;;27.90;11.27;;;;;;;;;;8256570;28;20072;-73
2021/01/14 20:40:42;;;;;;;26.80;10.27;;;;;;;;;;8256217;28;20072;-71
2021/01/14 20:44:45;;;;;;;20.65;8.80;;;;;;;;;;8253860;28;20386;-73
2021/01/14 20:48:51;;;;;;;19.48;9.15;;;;;;;;;;8255020;28;20479;-74
2021/01/14 20:52:54;;;;;;;25.98;10.80;;;;;;;;;;8255731;28;20071;-72
2021/01/14 20:57:01;;;;;;;25.35;10.95;;;;;;;;;;8253547;28;20418;-72
2021/01/14 21:01:07;;;;;;;37.60;15.52;;;;;;;;;;8255491;28;20417;-71
2021/01/14 21:05:13;;;;;;;30.25;12.85;;;;;;;;;;8270765;28;20049;-71
2021/01/14 21:09:17;;;;;;;32.70;12.30;;;;;;;;;;8252247;28;20506;-71
2021/01/14 21:13:23;;;;;;;32.75;13.45;;;;;;;;;;8237070;28;20379;-72
2021/01/14 21:17:29;;;;;;;29.40;11.80;;;;;;;;;;8254707;28;20475;-72
2021/01/14 21:21:33;;;;;;;25.75;12.30;;;;;;;;;;8253545;28;20503;-73
2021/01/14 21:25:37;;;;;;;26.17;12.27;;;;;;;;;;8253349;28;20680;-72
2021/01/14 21:29:40;;;;;;;30.00;11.85;;;;;;;;;;8254281;28;20044;-71
2021/01/14 21:33:44;;;;;;;26.17;11.98;;;;;;;;;;8251810;28;20390;-74
2021/01/14 21:37:47;;;;;;;69.70;22.30;;;;;;;;;;8252477;28;20395;-71
2021/01/14 21:41:51;;;;;;;262.02;54.95;;;;;;;;;;8253594;28;20360;-74
2021/01/14 21:45:54;;;;;;;316.88;66.38;;;;;;;;;;8253795;28;20475;-73
2021/01/14 21:49:57;;;;;;;227.27;44.13;;;;;;;;;;8253083;28;20494;-72
2021/01/14 21:54:01;;;;;;;248.55;61.15;;;;;;;;;;8253257;28;20483;-73
2021/01/14 21:58:04;;;;;;;104.15;29.20;;;;;;;;;;8267224;28;20594;-71
2021/01/14 22:02:07;;;;;;;129.60;33.00;;;;;;;;;;8253631;28;20053;-72
2021/01/14 22:06:11;;;;;;;115.65;29.65;;;;;;;;;;8251239;28;20391;-73
2021/01/14 22:10:13;;;;;;;102.63;26.33;;;;;;;;;;8252323;28;20045;-72
2021/01/14 22:14:17;;;;;;;120.00;25.58;;;;;;;;;;8253014;28;20057;-71
2021/01/14 22:18:20;;;;;;;159.38;31.40;;;;;;;;;;8253246;28;20480;-74
2021/01/14 22:22:23;;;;;;;163.27;31.67;;;;;;;;;;8251012;28;20430;-72
2021/01/14 22:26:34;;;;;;;154.25;36.17;;;;;;;;;;8251817;28;20056;-73
2021/01/14 22:30:38;;;;;;;98.93;31.55;;;;;;;;;;8253738;28;20052;-73
2021/01/14 22:34:42;;;;;;;100.30;27.30;;;;;;;;;;8252747;28;20044;-73
2021/01/14 22:38:45;;;;;;;83.47;23.90;;;;;;;;;;8252566;28;20049;-73
2021/01/14 22:42:48;;;;;;;56.53;22.42;;;;;;;;;;8249908;28;20471;-72
2021/01/14 22:46:52;;;;;;;42.00;16.42;;;;;;;;;;8252165;28;20509;-73
2021/01/14 22:50:55;;;;;;;35.55;15.40;;;;;;;;;;8251438;28;20380;-71
2021/01/14 22:54:58;;;;;;;31.30;14.30;;;;;;;;;;8251912;28;20361;-71
2021/01/14 22:59:03;;;;;;;33.78;15.18;;;;;;;;;;8232629;28;20395;-72
2021/01/14 23:03:06;;;;;;;115.90;41.83;;;;;;;;;;8251941;28;20492;-73
2021/01/14 23:07:09;;;;;;;33.88;13.90;;;;;;;;;;8251829;28;20049;-71
2021/01/14 23:11:12;;;;;;;36.97;13.63;;;;;;;;;;8249305;28;20045;-73
2021/01/14 23:15:16;;;;;;;24.55;11.88;;;;;;;;;;8250672;28;20380;-70
2021/01/14 23:19:19;;;;;;;26.98;12.82;;;;;;;;;;8250208;28;20041;-73
2021/01/14 23:23:22;;;;;;;27.45;12.95;;;;;;;;;;8249813;28;20419;-71
2021/01/14 23:27:29;;;;;;;24.10;10.70;;;;;;;;;;8249974;28;20084;-72
2021/01/14 23:31:31;;;;;;;24.25;10.05;;;;;;;;;;8252286;28;20369;-72
2021/01/14 23:35:35;;;;;;;21.15;10.27;;;;;;;;;;8252137;28;20364;-71
2021/01/14 23:39:38;;;;;;;19.73;9.15;;;;;;;;;;8251006;28;20053;-73
2021/01/14 23:43:41;;;;;;;14.15;7.28;;;;;;;;;;8250750;28;20383;-73
2021/01/14 23:47:44;;;;;;;15.23;7.43;;;;;;;;;;8251338;28;20456;-71
2021/01/14 23:51:47;;;;;;;16.38;6.63;;;;;;;;;;8251150;28;20375;-71
2021/01/14 23:55:50;;;;;;;16.73;7.75;;;;;;;;;;8249565;28;20379;-72
2021/01/14 23:59:53;;;;;;;12.98;6.43;;;;;;;;;;8250500;28;20385;-71
